Time;durP1;ratioP1;P1;durP2;ratioP2;P2;SDS_P1;SDS_P2;PMS_P1;PMS_P2;Temp;Humidity;BMP_temperature;BMP_pressure;BME280_temperature;BME280_humidity;BME280_pressure;Samples;Min_cycle;Max_cycle;Signal;HPM_P1;HPM_P2
2022/06/04 00:01:00;;;;;;;1.85;0.90;;;;;;;15.74;50.03;101719.59;5040217;28;20042;-72
2022/06/04 00:03:28;;;;;;;2.35;1.20;;;;;;;15.67;50.17;101710.97;5032603;28;20053;-73
2022/06/04 00:05:57;;;;;;;2.03;1.10;;;;;;;15.61;50.36;101713.88;5042997;28;20043;-73
2022/06/04 00:08:26;;;;;;;3.50;1.30;;;;;;;15.58;50.38;101713.13;5053213;28;20843;-72
2022/06/04 00:16:29;;;;;;;3.03;1.15;;;;;;;15.42;51.09;101713.69;5037147;28;20045;-72
2022/06/04 00:18:57;;;;;;;1.48;1.20;;;;;;;15.39;51.23;101727.09;5032630;28;20045;-73
2022/06/04 00:21:25;;;;;;;3.15;1.20;;;;;;;15.36;51.44;101721.88;5033752;28;20910;-73
2022/06/04 00:23:53;;;;;;;2.90;1.40;;;;;;;15.30;51.78;101719.47;5032837;28;20460;-74
2022/06/04 00:26:22;;;;;;;4.13;1.40;;;;;;;15.22;51.87;101723.25;5036494;28;20046;-73
2022/06/04 00:28:50;;;;;;;2.60;1.10;;;;;;;15.22;52.11;101719.72;5045291;28;20050;-75
2022/06/04 00:31:18;;;;;;;4.28;1.30;;;;;;;15.14;52.37;101714.69;5052285;28;20053;-73
2022/06/04 00:33:47;;;;;;;1.92;1.20;;;;;;;15.12;52.57;101710.38;5048109;28;20045;-74
2022/06/04 00:36:14;;;;;;;1.52;1.20;;;;;;;15.09;52.88;101713.13;5043779;28;20041;-73
2022/06/04 00:38:41;;;;;;;3.58;1.30;;;;;;;15.00;53.22;101701.91;5051581;28;20045;-73
2022/06/04 00:41:43;;;;;;;3.72;1.30;;;;;;;15.01;53.13;101706.28;5046453;28;20050;-73
2022/06/04 00:44:10;;;;;;;6.10;1.70;;;;;;;14.91;53.53;101703.09;5034254;28;20104;-74
2022/06/04 00:46:40;;;;;;;3.17;1.40;;;;;;;14.91;53.52;101708.41;5032533;28;20519;-73
2022/06/04 00:49:18;;;;;;;2.55;1.25;;;;;;;14.90;53.38;101714.63;5031081;28;20092;-74
2022/06/04 00:51:50;;;;;;;6.65;1.60;;;;;;;14.85;53.47;101710.41;5034657;28;20100;-74
2022/06/04 00:54:18;;;;;;;2.53;1.52;;;;;;;14.78;53.58;101707.09;5032407;28;20508;-73
2022/06/04 00:57:32;;;;;;;1.35;1.10;;;;;;;14.74;53.68;101718.72;5042827;28;20037;-75
2022/06/04 01:00:24;;;;;;;3.63;1.65;;;;;;;14.70;53.62;101709.16;5042131;28;20155;-75
2022/06/04 01:03:37;;;;;;;4.13;1.30;;;;;;;14.66;53.65;101713.66;5031754;28;20046;-75
2022/06/04 01:06:28;;;;;;;3.25;1.50;;;;;;;14.61;53.96;101712.94;5041374;28;20112;-74
2022/06/04 01:09:54;;;;;;;2.65;1.20;;;;;;;14.55;54.49;101729.09;5035380;28;20038;-76
2022/06/04 01:12:51;;;;;;;5.10;1.33;;;;;;;14.53;54.57;101731.75;5036570;28;20069;-75
2022/06/04 01:15:33;;;;;;;10.25;1.50;;;;;;;14.48;54.87;101741.69;5033640;28;20045;-77
2022/06/04 01:18:33;;;;;;;3.88;1.63;;;;;;;14.45;54.80;101745.28;5034435;28;20042;-77
2022/06/04 01:21:31;;;;;;;2.97;1.20;;;;;;;14.40;54.72;101751.63;5039228;28;20038;-76
2022/06/04 01:24:14;;;;;;;3.10;1.50;;;;;;;14.34;55.09;101773.06;5040263;28;20037;-75
2022/06/04 01:27:06;;;;;;;2.17;1.40;;;;;;;14.33;55.01;101773.97;5060624;28;20045;-76
2022/06/04 01:29:46;;;;;;;2.83;1.30;;;;;;;14.31;55.11;101768.72;5062224;28;20064;-75
2022/06/04 01:32:27;;;;;;;3.65;1.52;;;;;;;14.26;55.23;101768.88;5050650;28;20033;-75
2022/06/04 01:35:24;;;;;;;2.50;1.70;;;;;;;14.24;55.17;101764.53;5058499;28;20030;-75
2022/06/04 01:38:03;;;;;;;2.50;1.65;;;;;;;14.24;55.31;101769.84;5051724;28;20038;-75
2022/06/04 01:41:04;;;;;;;3.30;1.63;;;;;;;14.21;55.47;101768.13;5049089;28;20884;-74
2022/06/04 01:43:46;;;;;;;3.55;1.48;;;;;;;14.18;55.53;101773.56;5050634;28;20058;-75
2022/06/04 01:46:25;;;;;;;3.60;1.40;;;;;;;14.14;55.85;101767.44;5032483;28;20069;-75
2022/06/04 01:49:11;;;;;;;5.10;2.15;;;;;;;14.16;55.97;101777.16;5032606;28;20527;-74
2022/06/04 01:51:39;;;;;;;4.53;1.63;;;;;;;14.14;56.11;101777.19;5034567;28;20511;-75
2022/06/04 01:54:17;;;;;;;3.53;1.80;;;;;;;14.10;56.00;101767.59;5038390;28;20050;-72
2022/06/04 01:56:52;;;;;;;3.58;1.70;;;;;;;14.09;56.21;101780.00;5033621;28;20100;-74
2022/06/04 01:59:38;;;;;;;3.42;1.67;;;;;;;14.04;56.35;101784.56;5032283;28;20034;-76
2022/06/04 02:02:13;;;;;;;3.53;1.50;;;;;;;14.05;56.33;101790.75;5035791;28;20107;-76
2022/06/04 02:05:02;;;;;;;2.10;1.52;;;;;;;14.02;56.76;101781.09;5045609;28;20041;-73
2022/06/04 02:07:36;;;;;;;3.33;1.80;;;;;;;13.96;56.80;101790.09;5039946;28;20048;-73
2022/06/04 02:10:40;;;;;;;4.60;1.70;;;;;;;13.94;57.11;101781.31;5035436;28;20047;-73
2022/06/04 02:13:15;;;;;;;3.40;1.73;;;;;;;13.93;57.39;101782.22;5048032;28;20053;-74
2022/06/04 02:16:22;;;;;;;3.35;2.10;;;;;;;13.93;57.37;101784.88;5043891;28;20041;-75
2022/06/04 02:18:50;;;;;;;2.88;1.73;;;;;;;13.85;57.65;101780.69;5052819;28;20076;-72
2022/06/04 02:21:18;;;;;;;2.53;1.77;;;;;;;13.85;57.74;101775.41;5036462;28;20500;-72
2022/06/04 02:23:47;;;;;;;2.90;1.95;;;;;;;13.82;58.08;101769.31;5034807;28;20034;-72
2022/06/04 02:26:17;;;;;;;3.83;2.03;;;;;;;13.82;58.30;101771.97;5040140;28;20118;-71
2022/06/04 02:28:47;;;;;;;2.20;1.90;;;;;;;13.77;58.63;101778.31;5034490;28;20045;-71
2022/06/04 02:32:04;;;;;;;3.13;1.90;;;;;;;13.73;58.56;101769.56;5035569;28;20096;-71
2022/06/04 02:35:11;;;;;;;3.90;1.98;;;;;;;13.69;58.94;101761.72;5028904;28;20910;-72
2022/06/04 02:37:44;;;;;;;6.60;1.90;;;;;;;13.69;59.20;101754.66;5035884;28;20045;-72
2022/06/04 02:40:29;;;;;;;3.38;2.05;;;;;;;13.63;59.46;101763.66;5042220;28;20104;-71
2022/06/04 02:43:06;;;;;;;;;;;;;;;13.60;59.84;101761.09;5035110;28;20038;-72
2022/06/04 02:45:41;;;;;;;3.50;2.13;;;;;;;13.55;60.06;101759.47;5045170;28;19929;-72
2022/06/04 02:48:14;;;;;;;4.07;2.22;;;;;;;13.54;60.22;101758.63;5035188;28;20053;-71
2022/06/04 02:50:47;;;;;;;4.00;2.50;;;;;;;13.51;60.19;101759.59;5033781;28;20041;-74
2022/06/04 02:53:17;;;;;;;3.50;2.30;;;;;;;13.48;60.48;101751.72;5037814;28;20038;-75
2022/06/04 02:56:10;;;;;;;4.57;2.63;;;;;;;13.49;60.70;101750.81;5046245;28;20484;-76
2022/06/04 02:58:42;;;;;;;4.63;2.90;;;;;;;13.44;60.96;101743.91;5035027;28;20048;-76
2022/06/04 03:01:11;;;;;;;3.85;2.40;;;;;;;13.45;60.99;101745.63;5041735;28;20100;-74
2022/06/04 03:03:40;;;;;;;4.57;2.55;;;;;;;13.44;61.27;101739.44;5034623;28;20123;-75
2022/06/04 03:06:25;;;;;;;8.05;3.00;;;;;;;13.42;61.47;101743.06;5033656;28;20042;-75
2022/06/04 03:08:54;;;;;;;6.43;2.70;;;;;;;13.40;61.53;101731.63;5037446;28;20045;-73
2022/06/04 03:11:21;;;;;;;4.30;2.65;;;;;;;13.41;61.63;101741.31;5044851;28;20042;-74
2022/06/04 03:13:49;;;;;;;4.60;3.00;;;;;;;13.35;61.88;101732.63;5036224;28;20125;-74
2022/06/04 03:16:16;;;;;;;5.35;2.72;;;;;;;13.38;62.17;101720.22;5034444;28;20452;-73
2022/06/04 03:18:45;;;;;;;5.35;2.75;;;;;;;13.34;62.34;101711.47;5043576;28;20042;-73
2022/06/04 03:21:12;;;;;;;6.53;2.75;;;;;;;13.36;62.26;101729.06;5046835;28;20053;-70
2022/06/04 03:23:39;;;;;;;7.75;3.28;;;;;;;13.31;62.49;101727.44;5034211;28;20496;-70
2022/06/04 03:26:07;;;;;;;5.53;3.00;;;;;;;13.27;62.80;101733.72;5041807;28;20041;-70
2022/06/04 03:28:34;;;;;;;6.93;3.00;;;;;;;13.31;62.83;101724.81;5049306;28;20389;-70
2022/06/04 03:31:01;;;;;;;4.50;3.30;;;;;;;13.27;62.93;101731.97;5050519;28;20055;-71
2022/06/04 03:33:28;;;;;;;4.90;3.17;;;;;;;13.21;63.24;101742.72;5040055;28;20045;-71
2022/06/04 03:35:55;;;;;;;4.20;2.97;;;;;;;13.20;63.38;101740.97;5045518;28;20049;-74
2022/06/04 03:38:23;;;;;;;4.32;3.30;;;;;;;13.18;63.49;101740.13;5036384;28;20041;-72
2022/06/04 03:40:50;;;;;;;4.95;3.08;;;;;;;13.17;63.57;101744.56;5037587;28;20153;-75
2022/06/04 03:43:17;;;;;;;8.25;3.28;;;;;;;13.14;63.70;101746.44;5033267;28;20038;-77
2022/06/04 03:45:44;;;;;;;4.78;2.97;;;;;;;13.17;63.87;101751.66;5050562;28;20128;-75
2022/06/04 03:48:11;;;;;;;5.85;3.25;;;;;;;13.22;64.03;101762.13;5035710;28;20519;-75
2022/06/04 03:50:38;;;;;;;8.07;3.55;;;;;;;13.18;63.86;101759.56;5033919;28;20405;-74
2022/06/04 03:53:06;;;;;;;4.75;3.20;;;;;;;13.16;64.10;101760.50;5046325;28;20045;-74
2022/06/04 03:55:33;;;;;;;6.65;3.53;;;;;;;13.18;64.03;101758.66;5043245;28;20068;-72
2022/06/04 03:58:00;;;;;;;8.98;3.75;;;;;;;13.23;64.09;101762.06;5038889;28;20045;-72
2022/06/04 04:00:40;;;;;;;8.25;3.47;;;;;;;13.22;64.24;101780.66;5032924;28;20812;-71
2022/06/04 04:03:18;;;;;;;7.18;3.65;;;;;;;13.29;64.37;101775.13;5040309;28;20054;-72
2022/06/04 04:05:52;;;;;;;7.32;3.75;;;;;;;13.29;64.31;101775.13;5045841;28;20048;-72
2022/06/04 04:08:25;;;;;;;4.90;3.43;;;;;;;13.24;64.55;101774.41;5052699;28;20037;-74
2022/06/04 04:10:52;;;;;;;6.93;3.58;;;;;;;13.22;64.66;101778.88;5043656;28;21147;-71
2022/06/04 04:13:19;;;;;;;6.55;3.70;;;;;;;13.16;64.81;101779.91;5046049;28;20471;-73
2022/06/04 04:15:48;;;;;;;7.15;3.95;;;;;;;13.07;65.27;101777.50;5037836;28;20051;-71
2022/06/04 04:18:15;;;;;;;8.18;3.83;;;;;;;13.01;65.58;101775.88;5040497;28;20045;-72
2022/06/04 04:20:48;;;;;;;9.05;3.97;;;;;;;12.99;65.80;101777.69;5032724;28;20046;-75
2022/06/04 04:23:15;;;;;;;7.75;3.92;;;;;;;13.00;65.95;101787.38;5041194;28;20051;-74
2022/06/04 04:25:42;;;;;;;4.75;3.50;;;;;;;12.98;66.15;101785.66;5046317;28;20061;-74
2022/06/04 04:28:10;;;;;;;8.40;4.13;;;;;;;12.96;66.24;101783.06;5032855;28;20801;-74
2022/06/04 04:30:37;;;;;;;7.50;3.63;;;;;;;12.95;66.60;101770.75;5038660;28;20046;-80
2022/06/04 04:33:06;;;;;;;4.05;3.63;;;;;;;12.97;66.48;101776.84;5035086;28;20049;-79
2022/06/04 04:35:35;;;;;;;9.23;4.55;;;;;;;12.99;66.49;101775.03;5033645;28;20046;-77
2022/06/04 04:38:04;;;;;;;7.40;4.18;;;;;;;12.98;66.78;101777.72;5053174;28;20847;-79
2022/06/04 04:40:32;;;;;;;5.72;3.80;;;;;;;13.00;66.91;101782.06;5042463;28;20036;-80
2022/06/04 04:43:00;;;;;;;8.30;3.88;;;;;;;13.05;66.70;101776.66;5031542;28;20049;-78
2022/06/04 04:45:28;;;;;;;4.25;3.45;;;;;;;13.08;66.86;101776.59;5042254;28;20034;-78
2022/06/04 04:47:56;;;;;;;8.27;4.20;;;;;;;13.09;66.79;101790.69;5039802;28;20052;-79
2022/06/04 04:50:35;;;;;;;6.20;3.78;;;;;;;13.09;66.70;101788.03;5041523;28;20042;-79
2022/06/04 04:53:09;;;;;;;8.77;3.85;;;;;;;13.07;66.79;101793.38;5042575;28;20974;-80
2022/06/04 04:55:37;;;;;;;6.30;3.78;;;;;;;13.07;66.94;101790.72;5036956;28;20527;-79
2022/06/04 04:58:05;;;;;;;7.88;4.40;;;;;;;13.06;67.11;101789.00;5033409;28;20495;-79
2022/06/04 05:00:33;;;;;;;8.60;4.35;;;;;;;13.04;67.01;101786.38;5051175;28;20049;-82
2022/06/04 05:03:01;;;;;;;8.38;4.45;;;;;;;13.03;67.30;101794.34;5048794;28;21235;-78
2022/06/04 05:05:29;;;;;;;7.57;4.20;;;;;;;13.02;67.27;101790.84;5036480;28;20064;-74
2022/06/04 05:07:57;;;;;;;5.80;4.47;;;;;;;13.03;67.22;101797.00;5051609;28;20554;-76
2022/06/04 05:10:25;;;;;;;6.30;4.40;;;;;;;13.08;67.32;101802.16;5047800;28;20057;-76
2022/06/04 05:12:56;;;;;;;7.90;4.47;;;;;;;13.09;67.32;101809.22;5048210;28;20586;-76
2022/06/04 05:15:24;;;;;;;6.53;4.28;;;;;;;13.07;67.57;101816.34;5040365;28;20046;-75
2022/06/04 05:17:52;;;;;;;8.52;4.57;;;;;;;13.11;67.42;101820.63;5045126;28;20034;-75
2022/06/04 05:20:19;;;;;;;9.65;4.55;;;;;;;13.14;67.36;101820.56;5039395;28;20129;-74
2022/06/04 05:22:46;;;;;;;6.47;4.80;;;;;;;13.21;67.17;101824.78;5037840;28;20072;-75
2022/06/04 05:25:14;;;;;;;6.78;4.80;;;;;;;13.24;67.00;101818.53;5043879;28;20053;-75
2022/06/04 05:27:41;;;;;;;10.45;4.88;;;;;;;13.27;67.05;101815.81;5031757;28;20042;-76
2022/06/04 05:30:10;;;;;;;7.82;4.47;;;;;;;13.33;66.80;101818.28;5031970;28;20046;-75
2022/06/04 05:32:37;;;;;;;10.10;5.05;;;;;;;13.32;66.95;101813.94;5049122;28;20056;-72
2022/06/04 05:35:04;;;;;;;7.25;4.80;;;;;;;13.39;66.82;101818.19;5047024;28;20125;-76
2022/06/04 05:37:31;;;;;;;6.60;4.63;;;;;;;13.43;66.75;101819.81;5032577;28;20038;-75
2022/06/04 05:40:04;;;;;;;8.27;4.90;;;;;;;13.48;66.59;101828.53;5031406;28;20347;-75
2022/06/04 05:42:32;;;;;;;9.10;5.18;;;;;;;13.50;66.48;101828.47;5037343;28;20068;-75
2022/06/04 05:45:00;;;;;;;10.60;4.47;;;;;;;13.58;66.19;101828.28;5035552;28;20048;-75
2022/06/04 05:47:28;;;;;;;7.75;4.72;;;;;;;13.59;66.25;101833.53;5036981;28;20038;-76
2022/06/04 05:49:57;;;;;;;7.43;4.43;;;;;;;13.70;65.97;101841.19;5041287;28;20456;-72
2022/06/04 05:52:25;;;;;;;7.68;4.93;;;;;;;13.72;65.87;101847.34;5041825;28;20050;-72
2022/06/04 05:54:52;;;;;;;11.23;5.22;;;;;;;13.77;65.83;101845.41;5042885;28;20093;-73
2022/06/04 05:57:19;;;;;;;10.27;5.35;;;;;;;13.85;65.64;101844.31;5046475;28;20034;-74
2022/06/04 05:59:49;;;;;;;9.15;5.35;;;;;;;13.90;65.42;101839.78;5039094;28;20042;-74
2022/06/04 06:02:21;;;;;;;7.97;5.35;;;;;;;14.00;65.28;101843.00;5042097;28;20038;-71
2022/06/04 06:04:48;;;;;;;11.05;5.68;;;;;;;14.02;65.34;101835.88;5039200;28;20487;-72
2022/06/04 06:07:15;;;;;;;8.90;5.03;;;;;;;14.15;64.42;101837.28;5036920;28;20035;-69
2022/06/04 06:09:42;;;;;;;8.73;5.35;;;;;;;14.17;64.33;101835.47;5034568;28;20066;-74
2022/06/04 06:12:10;;;;;;;9.65;5.75;;;;;;;14.19;64.30;101840.69;5038969;28;20224;-73
2022/06/04 06:14:37;;;;;;;8.05;5.00;;;;;;;14.17;63.91;101839.88;5044637;28;20051;-75
2022/06/04 06:17:05;;;;;;;6.47;4.93;;;;;;;14.14;64.16;101849.66;5040366;28;20046;-74
2022/06/04 06:19:32;;;;;;;10.55;5.28;;;;;;;14.16;64.37;101844.31;5035525;28;20172;-72
2022/06/04 06:22:02;;;;;;;11.13;5.55;;;;;;;14.14;64.39;101841.69;5040421;28;20045;-73
2022/06/04 06:24:29;;;;;;;7.70;5.40;;;;;;;14.17;64.26;101848.72;5042180;28;20504;-74
2022/06/04 06:26:59;;;;;;;9.25;5.63;;;;;;;14.21;64.23;101854.78;5039326;28;20042;-73
2022/06/04 06:29:30;;;;;;;8.13;5.68;;;;;;;14.31;63.75;101852.72;5056704;28;20124;-74
2022/06/04 06:32:00;;;;;;;8.73;5.85;;;;;;;14.34;63.71;101853.53;5031686;28;20149;-72
2022/06/04 06:34:27;;;;;;;7.88;5.00;;;;;;;14.39;63.35;101864.84;5037799;28;20056;-73
2022/06/04 06:36:56;;;;;;;10.93;5.18;;;;;;;14.41;63.57;101863.03;5043427;28;20049;-73
2022/06/04 06:39:25;;;;;;;6.75;4.88;;;;;;;14.56;62.85;101860.81;5036383;28;21752;-75
2022/06/04 06:41:52;;;;;;;6.63;5.03;;;;;;;14.54;63.03;101866.16;5035747;28;20621;-74
2022/06/04 06:44:30;;;;;;;7.63;5.10;;;;;;;14.60;63.14;101863.31;5028284;28;20680;-74
2022/06/04 06:46:57;;;;;;;8.93;5.35;;;;;;;14.65;63.10;101873.78;5031180;28;20030;-74
2022/06/04 06:49:29;;;;;;;6.65;4.97;;;;;;;14.75;62.67;101866.44;5032233;28;20519;-74
2022/06/04 06:52:00;;;;;;;6.57;5.03;;;;;;;14.84;62.04;101878.56;5042691;28;20065;-75
2022/06/04 06:54:35;;;;;;;7.40;5.20;;;;;;;14.85;62.32;101881.16;5040518;28;20574;-74
2022/06/04 06:57:10;;;;;;;8.95;5.47;;;;;;;14.97;61.90;101881.69;5033593;28;20044;-74
2022/06/04 06:59:43;;;;;;;7.60;4.90;;;;;;;15.05;61.64;101885.84;5037820;28;20500;-74
2022/06/04 07:02:11;;;;;;;9.73;5.20;;;;;;;15.06;61.55;101874.28;5032440;28;20049;-73
2022/06/04 07:04:38;;;;;;;7.40;5.05;;;;;;;15.13;61.42;101877.59;5031008;28;20045;-74
2022/06/04 07:07:06;;;;;;;8.27;5.03;;;;;;;15.25;60.86;101876.34;5044872;28;20042;-75
2022/06/04 07:09:37;;;;;;;8.90;5.45;;;;;;;15.28;61.10;101876.22;5045520;28;20559;-73
2022/06/04 07:12:07;;;;;;;7.50;5.50;;;;;;;15.31;60.94;101878.78;5045128;28;20053;-73
2022/06/04 07:14:35;;;;;;;10.20;5.05;;;;;;;15.41;60.52;101883.78;5047161;28;20041;-74
2022/06/04 07:17:05;;;;;;;6.40;4.72;;;;;;;15.47;60.30;101873.81;5046300;28;20571;-73
2022/06/04 07:19:34;;;;;;;8.05;5.20;;;;;;;15.55;60.26;101870.91;5050152;28;20968;-73
2022/06/04 07:22:02;;;;;;;8.70;4.60;;;;;;;15.68;59.91;101872.19;5049960;28;20485;-74
2022/06/04 07:24:29;;;;;;;8.40;5.55;;;;;;;15.70;59.60;101864.19;5048204;28;20046;-75
2022/06/04 07:26:58;;;;;;;6.63;4.97;;;;;;;15.75;59.35;101872.84;5050674;28;20069;-73
2022/06/04 07:29:26;;;;;;;7.68;4.88;;;;;;;15.78;59.53;101871.84;5050491;28;20045;-74
2022/06/04 07:31:54;;;;;;;8.57;5.30;;;;;;;15.77;59.71;101867.50;5049269;28;20496;-75
2022/06/04 07:34:22;;;;;;;8.50;4.82;;;;;;;15.89;59.76;101874.19;5040296;28;20044;-73
2022/06/04 07:36:52;;;;;;;9.40;5.18;;;;;;;15.97;59.05;101878.28;5042475;28;20041;-74
2022/06/04 07:39:20;;;;;;;7.65;5.07;;;;;;;16.06;58.66;101871.75;5039399;28;20065;-72
2022/06/04 07:41:52;;;;;;;5.40;4.40;;;;;;;16.12;58.41;101871.56;5046373;28;20085;-76
2022/06/04 07:44:24;;;;;;;8.25;4.55;;;;;;;16.26;57.95;101871.03;5045964;28;20129;-74
2022/06/04 07:46:55;;;;;;;11.13;5.18;;;;;;;16.28;58.19;101878.94;5039411;28;21014;-73
2022/06/04 07:49:23;;;;;;;12.25;5.55;;;;;;;16.39;57.36;101874.09;5036631;28;20037;-74
2022/06/04 07:51:54;;;;;;;8.95;5.10;;;;;;;16.44;57.51;101885.41;5035913;28;20095;-76
2022/06/04 07:54:22;;;;;;;7.47;5.05;;;;;;;16.51;57.66;101885.19;5036432;28;20457;-75
2022/06/04 07:56:51;;;;;;;6.88;5.15;;;;;;;16.64;57.52;101890.91;5032606;28;20042;-75
2022/06/04 07:59:18;;;;;;;6.57;4.72;;;;;;;16.92;56.06;101890.66;5037408;28;20110;-74
2022/06/04 08:01:46;;;;;;;9.32;4.78;;;;;;;17.01;55.83;101886.78;5037750;28;20037;-72
2022/06/04 08:04:14;;;;;;;7.18;4.85;;;;;;;17.12;55.83;101879.22;5036092;28;22120;-74
2022/06/04 08:06:42;;;;;;;8.23;5.05;;;;;;;17.25;55.24;101879.56;5036236;28;20084;-74
2022/06/04 08:09:10;;;;;;;6.50;4.68;;;;;;;17.39;54.58;101879.84;5042120;28;20428;-73
2022/06/04 08:11:38;;;;;;;7.43;4.82;;;;;;;17.49;54.17;101900.78;5037344;28;20038;-74
2022/06/04 08:14:13;;;;;;;9.13;5.35;;;;;;;17.51;54.09;101905.13;5035897;28;20132;-73
2022/06/04 08:17:02;;;;;;;8.13;5.32;;;;;;;17.43;54.33;101901.06;5035209;28;20728;-74
2022/06/04 08:19:32;;;;;;;9.20;5.22;;;;;;;17.36;54.59;101901.31;5039037;28;20053;-74
2022/06/04 08:22:00;;;;;;;7.38;5.38;;;;;;;17.47;54.01;101895.53;5036982;28;20056;-74
2022/06/04 08:24:27;;;;;;;8.07;4.72;;;;;;;17.57;53.87;101888.00;5032816;28;20049;-73
2022/06/04 08:26:59;;;;;;;7.32;4.80;;;;;;;17.70;54.03;101888.34;5048052;28;20049;-73
2022/06/04 08:29:32;;;;;;;7.38;5.10;;;;;;;17.91;53.41;101890.97;5054396;28;20022;-73
2022/06/04 08:32:03;;;;;;;6.93;4.82;;;;;;;18.07;53.02;101886.72;5055922;28;20060;-74
2022/06/04 08:34:32;;;;;;;8.48;5.00;;;;;;;18.28;52.58;101881.34;5051029;28;20094;-73
2022/06/04 08:37:00;;;;;;;5.40;4.22;;;;;;;18.49;51.78;101881.28;5042951;28;20117;-74
2022/06/04 08:39:28;;;;;;;5.95;4.60;;;;;;;18.84;50.96;101879.56;5037570;28;20144;-74
2022/06/04 08:42:11;;;;;;;7.00;4.70;;;;;;;19.17;49.90;101886.03;5035624;28;20423;-76
2022/06/04 08:44:51;;;;;;;8.10;4.35;;;;;;;19.20;49.52;101889.41;5033811;28;21966;-73
2022/06/04 08:47:39;;;;;;;5.63;4.60;;;;;;;19.15;49.65;101893.25;5029521;28;20085;-74
2022/06/04 08:50:09;;;;;;;7.28;5.05;;;;;;;19.13;49.44;101888.00;5038461;28;20051;-76
2022/06/04 08:52:41;;;;;;;6.45;4.40;;;;;;;19.08;49.45;101879.31;5033319;28;20049;-73
2022/06/04 08:58:36;;;;;;;9.13;5.28;;;;;;;18.92;50.00;101872.03;5028637;28;20116;-75
2022/06/04 09:01:14;;;;;;;8.27;4.90;;;;;;;18.77;50.66;101883.50;5037610;28;20041;-75
2022/06/04 09:04:06;;;;;;;8.02;4.82;;;;;;;18.82;50.48;101883.28;5036117;28;20053;-74
2022/06/04 09:06:52;;;;;;;7.65;5.00;;;;;;;18.81;50.41;101887.72;5032403;28;20048;-75
2022/06/04 09:09:34;;;;;;;7.80;4.18;;;;;;;18.75;50.52;101877.34;5040512;28;20077;-74
2022/06/04 09:12:33;;;;;;;8.32;5.68;;;;;;;18.69;50.54;101883.84;5037451;28;20691;-74
2022/06/04 09:15:24;;;;;;;6.95;4.72;;;;;;;18.72;50.80;101878.34;5039462;28;20038;-74
2022/06/04 09:17:54;;;;;;;7.65;5.55;;;;;;;18.72;50.65;101875.69;5043696;28;20045;-73
2022/06/04 09:20:41;;;;;;;6.93;4.97;;;;;;;18.70;51.10;101874.03;5040037;28;20049;-73
2022/06/04 09:23:35;;;;;;;9.40;5.55;;;;;;;18.84;50.70;101886.72;5052863;28;20556;-74
2022/06/04 09:26:12;;;;;;;6.85;4.88;;;;;;;18.91;50.51;101898.84;5043258;28;21240;-73
2022/06/04 09:28:54;;;;;;;6.43;5.00;;;;;;;18.95;50.15;101900.44;5036390;28;20046;-74
2022/06/04 09:31:39;;;;;;;7.10;5.45;;;;;;;18.97;50.59;101903.91;5036582;28;20042;-74
2022/06/04 09:34:17;;;;;;;7.97;5.40;;;;;;;19.17;50.43;101902.06;5037895;28;20042;-74
2022/06/04 09:36:46;;;;;;;7.85;5.45;;;;;;;19.48;49.20;101897.84;5035722;28;20369;-75
2022/06/04 09:39:33;;;;;;;7.22;5.30;;;;;;;19.59;49.12;101891.91;5037065;28;20046;-74
2022/06/04 09:42:11;;;;;;;7.78;5.00;;;;;;;19.74;48.97;101896.47;5036975;28;20048;-75
2022/06/04 09:45:01;;;;;;;7.35;5.15;;;;;;;19.93;48.84;101892.88;5034273;28;20043;-73
2022/06/04 09:47:45;;;;;;;10.63;4.90;;;;;;;20.12;48.23;101890.06;5038516;28;20135;-74
2022/06/04 09:50:21;;;;;;;9.88;5.07;;;;;;;20.35;47.53;101888.81;5031051;28;20045;-75
2022/06/04 09:53:18;;;;;;;6.97;5.35;;;;;;;20.58;47.59;101889.34;5040503;28;20045;-75
2022/06/04 09:55:56;;;;;;;10.48;5.88;;;;;;;20.70;46.61;101880.63;5031135;28;20077;-75
2022/06/04 09:58:32;;;;;;;7.70;5.28;;;;;;;20.99;46.64;101894.19;5034806;28;20046;-75
2022/06/04 10:01:05;;;;;;;5.82;4.90;;;;;;;21.16;45.24;101885.19;5031313;28;20474;-75
2022/06/04 10:03:39;;;;;;;8.25;5.00;;;;;;;21.16;45.05;101890.53;5030071;28;20042;-75
2022/06/04 10:06:31;;;;;;;;;;;;;;;21.16;45.62;101892.34;5039988;28;20049;-74
2022/06/04 10:12:03;;;;;;;8.10;5.15;;;;;;;21.18;45.89;101879.72;5044978;28;20061;-72
2022/06/04 10:14:35;;;;;;;8.40;5.38;;;;;;;21.47;45.47;101880.63;5035230;28;20048;-73
2022/06/04 10:17:31;;;;;;;6.20;4.80;;;;;;;21.57;44.85;101889.00;5042232;28;20048;-73
2022/06/04 10:19:58;;;;;;;7.72;4.97;;;;;;;21.59;44.25;101892.50;5043431;28;20048;-75
2022/06/04 10:22:26;;;;;;;7.57;5.28;;;;;;;21.60;44.41;101894.22;5041873;28;20046;-77
2022/06/04 10:24:58;;;;;;;8.23;5.30;;;;;;;21.76;44.00;101904.91;5047615;28;20084;-75
2022/06/04 10:27:44;;;;;;;6.22;4.82;;;;;;;21.69;44.50;101909.78;5044089;28;20042;-76
2022/06/04 10:30:27;;;;;;;10.00;5.70;;;;;;;21.84;44.02;101910.66;5046343;28;20535;-76
2022/06/04 10:33:14;;;;;;;7.55;4.95;;;;;;;21.94;43.64;101904.72;5055233;28;20049;-75
2022/06/04 10:36:09;;;;;;;8.98;5.75;;;;;;;22.03;43.20;101896.09;5054218;28;20549;-75
2022/06/04 10:39:11;;;;;;;8.40;5.40;;;;;;;22.05;43.84;101896.84;5051169;28;20516;-76
2022/06/04 10:42:36;;;;;;;9.10;5.03;;;;;;;22.21;43.85;101904.81;5035044;28;20048;-75
2022/06/04 10:45:35;;;;;;;7.68;5.13;;;;;;;22.22;43.15;101901.19;5046465;28;20061;-75
2022/06/04 10:48:25;;;;;;;9.18;5.60;;;;;;;22.37;43.20;101891.28;5052072;28;20057;-75
2022/06/04 10:51:26;;;;;;;8.77;5.38;;;;;;;22.51;43.84;101894.91;5054653;28;20156;-76
2022/06/04 10:54:24;;;;;;;8.00;4.90;;;;;;;22.64;42.60;101885.97;5035157;28;20046;-76
2022/06/04 10:57:36;;;;;;;6.70;5.05;;;;;;;22.76;42.16;101880.75;5035192;28;20050;-77
2022/06/04 11:00:19;;;;;;;8.60;5.60;;;;;;;22.85;42.50;101888.19;5047782;28;20135;-75
2022/06/04 11:02:59;;;;;;;6.68;5.10;;;;;;;23.05;41.85;101888.69;5054590;28;20037;-76
2022/06/04 11:05:49;;;;;;;8.15;4.88;;;;;;;22.98;42.50;101888.28;5054468;28;20120;-75
2022/06/04 11:09:01;;;;;;;6.90;4.63;;;;;;;23.27;41.32;101890.84;5041275;28;20061;-76
2022/06/04 11:11:49;;;;;;;8.00;5.20;;;;;;;23.37;40.47;101889.25;5034334;28;20042;-75
2022/06/04 11:14:35;;;;;;;7.55;5.13;;;;;;;23.35;40.51;101887.66;5034258;28;20550;-75
2022/06/04 11:17:17;;;;;;;7.13;5.05;;;;;;;23.24;40.08;101883.88;5034513;28;20453;-75
2022/06/04 11:19:54;;;;;;;7.70;5.68;;;;;;;23.10;41.33;101892.81;5039992;28;20037;-77
2022/06/04 11:22:36;;;;;;;8.07;5.47;;;;;;;23.10;41.48;101886.56;5054518;28;20049;-76
2022/06/04 11:25:28;;;;;;;6.47;5.00;;;;;;;23.20;42.04;101895.78;5054336;28;20056;-75
2022/06/04 11:28:00;;;;;;;9.35;5.03;;;;;;;23.41;41.43;101889.91;5054255;28;20037;-76
2022/06/04 11:31:14;;;;;;;6.60;4.55;;;;;;;23.65;41.33;101895.44;5052448;28;20431;-76
2022/06/04 11:34:20;;;;;;;8.65;4.80;;;;;;;23.76;41.25;101888.44;5052953;28;20488;-75
2022/06/04 11:37:11;;;;;;;6.97;5.38;;;;;;;23.91;40.22;101894.56;5039502;28;20520;-76
2022/06/04 11:40:30;;;;;;;5.97;4.70;;;;;;;24.11;40.33;101893.19;5033979;28;20077;-76
2022/06/04 11:43:12;;;;;;;8.18;5.03;;;;;;;24.09;40.12;101892.44;5043078;28;20121;-75
2022/06/04 11:46:00;;;;;;;6.82;4.78;;;;;;;24.18;39.86;101894.47;5042795;28;20053;-74
2022/06/04 11:48:52;;;;;;;6.93;4.57;;;;;;;24.30;40.15;101900.81;5053681;28;20053;-75
2022/06/04 11:51:46;;;;;;;6.80;4.78;;;;;;;24.27;40.10;101893.81;5033717;28;20048;-75
2022/06/04 11:54:40;;;;;;;10.93;5.20;;;;;;;24.42;39.47;101901.75;5033907;28;20100;-75
2022/06/04 11:57:27;;;;;;;7.18;5.13;;;;;;;24.35;39.85;101898.66;5033729;28;20042;-76
2022/06/04 11:59:56;;;;;;;6.97;5.30;;;;;;;24.58;38.44;101898.78;5037338;28;20049;-77
2022/06/04 12:02:39;;;;;;;8.57;4.88;;;;;;;24.57;38.81;101889.00;5053893;28;20131;-76
2022/06/04 12:05:38;;;;;;;7.05;4.60;;;;;;;24.57;39.20;101887.16;5039759;28;20117;-76
2022/06/04 12:08:11;;;;;;;8.57;5.10;;;;;;;24.52;39.41;101885.78;5034962;28;20042;-77
2022/06/04 12:10:52;;;;;;;8.13;5.55;;;;;;;24.56;38.56;101887.28;5051204;28;20128;-76
2022/06/04 12:13:44;;;;;;;8.18;5.25;;;;;;;24.31;39.52;101880.97;5052979;28;20049;-76
2022/06/04 12:16:36;;;;;;;8.73;5.32;;;;;;;24.23;39.58;101878.81;5037768;28;20101;-75
2022/06/04 12:25:42;;;;;;;8.68;5.32;;;;;;;24.33;39.39;101868.25;5033454;28;20045;-75